Terminal Aerodrome Forecast
Issued by NWS

Home | Current Version | Previous Version | Text Only | Print | Product List | Glossary On
Versions: 1 2 3 4 5 6 7 8 9 10 11 12 13 14 15 16 17 18 19 20 21 22
700
FTUS44 KBMX 210840 AAB
TAFEET
TAF AMD
KEET 210840Z 2109/2206 15005KT P6SM SCT015
      TEMPO 2109/2113 BKN015 OVC050
     FM211400 16007KT P6SM BKN015
     FM211800 17010G16KT P6SM BKN035
     FM212300 17004KT P6SM BKN080=

USA.gov is the U.S. government's official web portal to all federal, state and local government web resources and services.